sensor_id;sensor_type;location;lat;lon;timestamp;P1;durP1;ratioP1;P2;durP2;ratioP2
11123;SDS011;5616;42.692;23.312;2022-10-31T00:01:23;6.53;;;3.50;;
11123;SDS011;5616;42.692;23.312;2022-10-31T00:03:51;5.20;;;3.73;;
11123;SDS011;5616;42.692;23.312;2022-10-31T00:06:19;5.63;;;3.50;;
11123;SDS011;5616;42.692;23.312;2022-10-31T00:08:46;6.30;;;3.50;;
11123;SDS011;5616;42.692;23.312;2022-10-31T00:11:13;4.10;;;3.53;;
11123;SDS011;5616;42.692;23.312;2022-10-31T00:13:40;6.40;;;3.27;;
11123;SDS011;5616;42.692;23.312;2022-10-31T00:16:14;7.57;;;3.40;;
11123;SDS011;5616;42.692;23.312;2022-10-31T00:18:41;5.03;;;3.37;;
11123;SDS011;5616;42.692;23.312;2022-10-31T00:21:08;4.87;;;3.40;;
11123;SDS011;5616;42.692;23.312;2022-10-31T00:23:35;4.23;;;3.30;;
11123;SDS011;5616;42.692;23.312;2022-10-31T00:26:02;7.43;;;3.20;;
11123;SDS011;5616;42.692;23.312;2022-10-31T00:28:30;4.03;;;3.40;;
11123;SDS011;5616;42.692;23.312;2022-10-31T00:31:00;6.40;;;3.60;;
11123;SDS011;5616;42.692;23.312;2022-10-31T00:33:29;4.27;;;3.03;;
11123;SDS011;5616;42.692;23.312;2022-10-31T00:35:56;4.93;;;3.03;;
11123;SDS011;5616;42.692;23.312;2022-10-31T00:38:22;4.03;;;3.07;;
11123;SDS011;5616;42.692;23.312;2022-10-31T00:40:49;5.13;;;3.30;;
11123;SDS011;5616;42.692;23.312;2022-10-31T00:43:16;9.27;;;3.77;;
11123;SDS011;5616;42.692;23.312;2022-10-31T00:45:43;6.80;;;3.20;;
11123;SDS011;5616;42.692;23.312;2022-10-31T00:48:10;5.50;;;3.73;;
11123;SDS011;5616;42.692;23.312;2022-10-31T00:50:38;6.13;;;3.53;;
11123;SDS011;5616;42.692;23.312;2022-10-31T00:53:06;5.90;;;3.70;;
11123;SDS011;5616;42.692;23.312;2022-10-31T00:55:33;5.57;;;3.73;;
11123;SDS011;5616;42.692;23.312;2022-10-31T00:58:00;6.57;;;3.60;;
11123;SDS011;5616;42.692;23.312;2022-10-31T01:00:27;8.07;;;3.40;;
11123;SDS011;5616;42.692;23.312;2022-10-31T01:02:54;6.50;;;3.50;;
11123;SDS011;5616;42.692;23.312;2022-10-31T01:05:21;6.70;;;3.53;;
11123;SDS011;5616;42.692;23.312;2022-10-31T01:07:50;6.83;;;3.40;;
11123;SDS011;5616;42.692;23.312;2022-10-31T01:10:17;4.67;;;3.60;;
11123;SDS011;5616;42.692;23.312;2022-10-31T01:12:44;4.97;;;3.63;;
11123;SDS011;5616;42.692;23.312;2022-10-31T01:15:13;6.87;;;3.73;;
11123;SDS011;5616;42.692;23.312;2022-10-31T01:17:42;4.23;;;3.37;;
11123;SDS011;5616;42.692;23.312;2022-10-31T01:20:11;7.53;;;3.83;;
11123;SDS011;5616;42.692;23.312;2022-10-31T01:22:39;5.23;;;3.47;;
11123;SDS011;5616;42.692;23.312;2022-10-31T01:25:08;7.40;;;3.33;;
11123;SDS011;5616;42.692;23.312;2022-10-31T01:27:36;5.80;;;3.70;;
11123;SDS011;5616;42.692;23.312;2022-10-31T01:30:05;5.73;;;3.63;;
11123;SDS011;5616;42.692;23.312;2022-10-31T01:32:32;7.97;;;3.90;;
11123;SDS011;5616;42.692;23.312;2022-10-31T01:34:59;6.50;;;3.30;;
11123;SDS011;5616;42.692;23.312;2022-10-31T01:37:26;5.53;;;3.37;;
11123;SDS011;5616;42.692;23.312;2022-10-31T01:39:53;7.33;;;4.37;;
11123;SDS011;5616;42.692;23.312;2022-10-31T01:42:22;6.20;;;3.53;;
11123;SDS011;5616;42.692;23.312;2022-10-31T01:44:51;4.90;;;3.40;;
11123;SDS011;5616;42.692;23.312;2022-10-31T01:47:30;4.30;;;3.40;;
11123;SDS011;5616;42.692;23.312;2022-10-31T01:50:09;5.47;;;3.70;;
11123;SDS011;5616;42.692;23.312;2022-10-31T01:52:40;8.43;;;3.73;;
11123;SDS011;5616;42.692;23.312;2022-10-31T01:55:10;5.93;;;3.90;;
11123;SDS011;5616;42.692;23.312;2022-10-31T01:57:44;6.00;;;3.80;;
11123;SDS011;5616;42.692;23.312;2022-10-31T02:00:16;6.23;;;3.77;;
11123;SDS011;5616;42.692;23.312;2022-10-31T02:02:43;7.00;;;4.17;;
11123;SDS011;5616;42.692;23.312;2022-10-31T02:05:16;5.67;;;3.60;;
11123;SDS011;5616;42.692;23.312;2022-10-31T02:07:47;8.47;;;3.77;;
11123;SDS011;5616;42.692;23.312;2022-10-31T02:10:17;5.17;;;3.70;;
11123;SDS011;5616;42.692;23.312;2022-10-31T02:12:48;5.93;;;3.50;;
11123;SDS011;5616;42.692;23.312;2022-10-31T02:15:16;5.73;;;3.90;;
11123;SDS011;5616;42.692;23.312;2022-10-31T02:17:43;6.33;;;3.73;;
11123;SDS011;5616;42.692;23.312;2022-10-31T02:20:12;5.67;;;3.80;;
11123;SDS011;5616;42.692;23.312;2022-10-31T02:22:48;6.63;;;4.33;;
11123;SDS011;5616;42.692;23.312;2022-10-31T02:25:41;5.83;;;3.80;;
11123;SDS011;5616;42.692;23.312;2022-10-31T02:28:33;7.63;;;4.90;;
11123;SDS011;5616;42.692;23.312;2022-10-31T02:31:22;8.67;;;4.30;;
11123;SDS011;5616;42.692;23.312;2022-10-31T02:33:59;8.83;;;4.17;;
11123;SDS011;5616;42.692;23.312;2022-10-31T02:36:32;6.27;;;4.90;;
11123;SDS011;5616;42.692;23.312;2022-10-31T02:39:07;6.77;;;4.70;;
11123;SDS011;5616;42.692;23.312;2022-10-31T02:41:44;8.40;;;5.40;;
11123;SDS011;5616;42.692;23.312;2022-10-31T02:44:16;5.60;;;4.83;;
11123;SDS011;5616;42.692;23.312;2022-10-31T02:46:54;9.23;;;5.47;;
11123;SDS011;5616;42.692;23.312;2022-10-31T02:49:26;7.87;;;5.37;;
11123;SDS011;5616;42.692;23.312;2022-10-31T02:51:57;8.73;;;5.00;;
11123;SDS011;5616;42.692;23.312;2022-10-31T02:54:24;9.70;;;5.33;;
11123;SDS011;5616;42.692;23.312;2022-10-31T02:56:54;9.83;;;5.33;;
11123;SDS011;5616;42.692;23.312;2022-10-31T02:59:25;7.37;;;5.53;;
11123;SDS011;5616;42.692;23.312;2022-10-31T03:02:02;9.13;;;5.40;;
11123;SDS011;5616;42.692;23.312;2022-10-31T03:07:26;9.57;;;5.63;;
11123;SDS011;5616;42.692;23.312;2022-10-31T03:10:03;6.20;;;5.30;;
11123;SDS011;5616;42.692;23.312;2022-10-31T03:12:38;10.03;;;5.77;;
11123;SDS011;5616;42.692;23.312;2022-10-31T03:15:12;8.90;;;5.57;;
11123;SDS011;5616;42.692;23.312;2022-10-31T03:17:47;7.07;;;5.13;;
11123;SDS011;5616;42.692;23.312;2022-10-31T03:20:22;8.93;;;5.97;;
11123;SDS011;5616;42.692;23.312;2022-10-31T03:22:52;8.37;;;5.90;;
11123;SDS011;5616;42.692;23.312;2022-10-31T03:25:22;7.43;;;5.43;;
11123;SDS011;5616;42.692;23.312;2022-10-31T03:27:53;10.13;;;6.17;;
11123;SDS011;5616;42.692;23.312;2022-10-31T03:30:21;8.03;;;6.00;;
11123;SDS011;5616;42.692;23.312;2022-10-31T03:32:56;11.13;;;5.87;;
11123;SDS011;5616;42.692;23.312;2022-10-31T03:35:29;17.03;;;5.13;;
11123;SDS011;5616;42.692;23.312;2022-10-31T03:37:58;8.97;;;5.87;;
11123;SDS011;5616;42.692;23.312;2022-10-31T03:40:26;8.33;;;5.87;;
11123;SDS011;5616;42.692;23.312;2022-10-31T03:42:54;9.27;;;5.80;;
11123;SDS011;5616;42.692;23.312;2022-10-31T03:45:26;8.93;;;6.40;;
11123;SDS011;5616;42.692;23.312;2022-10-31T03:47:57;8.73;;;6.70;;
11123;SDS011;5616;42.692;23.312;2022-10-31T03:50:26;10.67;;;6.30;;
11123;SDS011;5616;42.692;23.312;2022-10-31T03:53:00;10.77;;;6.30;;
11123;SDS011;5616;42.692;23.312;2022-10-31T03:55:35;10.63;;;7.00;;
11123;SDS011;5616;42.692;23.312;2022-10-31T03:58:07;9.83;;;6.47;;
11123;SDS011;5616;42.692;23.312;2022-10-31T04:00:37;11.57;;;6.33;;
11123;SDS011;5616;42.692;23.312;2022-10-31T04:03:09;9.03;;;6.47;;
11123;SDS011;5616;42.692;23.312;2022-10-31T04:05:41;11.75;;;7.40;;
11123;SDS011;5616;42.692;23.312;2022-10-31T04:08:13;11.30;;;6.63;;
11123;SDS011;5616;42.692;23.312;2022-10-31T04:10:46;10.50;;;7.27;;
11123;SDS011;5616;42.692;23.312;2022-10-31T04:13:17;10.60;;;6.67;;
11123;SDS011;5616;42.692;23.312;2022-10-31T04:15:58;11.30;;;6.87;;
11123;SDS011;5616;42.692;23.312;2022-10-31T04:18:26;10.27;;;6.90;;
11123;SDS011;5616;42.692;23.312;2022-10-31T04:20:59;12.33;;;7.50;;
11123;SDS011;5616;42.692;23.312;2022-10-31T04:23:27;12.23;;;7.33;;
11123;SDS011;5616;42.692;23.312;2022-10-31T04:25:54;9.57;;;7.20;;
11123;SDS011;5616;42.692;23.312;2022-10-31T04:28:21;10.33;;;7.13;;
11123;SDS011;5616;42.692;23.312;2022-10-31T04:30:48;13.60;;;7.88;;
11123;SDS011;5616;42.692;23.312;2022-10-31T04:33:15;9.13;;;7.30;;
11123;SDS011;5616;42.692;23.312;2022-10-31T04:35:46;9.27;;;7.40;;
11123;SDS011;5616;42.692;23.312;2022-10-31T04:38:12;10.30;;;7.37;;
11123;SDS011;5616;42.692;23.312;2022-10-31T04:40:40;18.63;;;7.80;;
11123;SDS011;5616;42.692;23.312;2022-10-31T04:43:25;15.73;;;8.00;;
11123;SDS011;5616;42.692;23.312;2022-10-31T04:45:52;11.27;;;7.60;;
11123;SDS011;5616;42.692;23.312;2022-10-31T04:48:19;14.53;;;7.13;;
11123;SDS011;5616;42.692;23.312;2022-10-31T04:50:47;9.83;;;6.97;;
11123;SDS011;5616;42.692;23.312;2022-10-31T04:53:14;10.13;;;6.60;;
11123;SDS011;5616;42.692;23.312;2022-10-31T04:56:01;14.97;;;7.40;;
11123;SDS011;5616;42.692;23.312;2022-10-31T04:58:37;14.13;;;7.53;;
11123;SDS011;5616;42.692;23.312;2022-10-31T05:01:07;11.90;;;7.40;;
11123;SDS011;5616;42.692;23.312;2022-10-31T05:03:34;12.40;;;7.67;;
11123;SDS011;5616;42.692;23.312;2022-10-31T05:06:02;12.77;;;7.53;;
11123;SDS011;5616;42.692;23.312;2022-10-31T05:08:29;14.37;;;7.30;;
11123;SDS011;5616;42.692;23.312;2022-10-31T05:10:59;9.73;;;7.40;;
11123;SDS011;5616;42.692;23.312;2022-10-31T05:13:26;9.67;;;6.77;;
11123;SDS011;5616;42.692;23.312;2022-10-31T05:16:16;11.40;;;7.20;;
11123;SDS011;5616;42.692;23.312;2022-10-31T05:19:01;13.33;;;7.97;;
11123;SDS011;5616;42.692;23.312;2022-10-31T05:21:48;11.30;;;7.37;;
11123;SDS011;5616;42.692;23.312;2022-10-31T05:24:15;12.47;;;7.43;;
11123;SDS011;5616;42.692;23.312;2022-10-31T05:26:46;13.47;;;7.50;;
11123;SDS011;5616;42.692;23.312;2022-10-31T05:29:12;13.73;;;8.23;;
11123;SDS011;5616;42.692;23.312;2022-10-31T05:31:39;11.30;;;8.23;;
11123;SDS011;5616;42.692;23.312;2022-10-31T05:34:13;16.37;;;8.17;;
11123;SDS011;5616;42.692;23.312;2022-10-31T05:37:00;12.57;;;8.50;;
11123;SDS011;5616;42.692;23.312;2022-10-31T05:39:27;15.77;;;8.40;;
11123;SDS011;5616;42.692;23.312;2022-10-31T05:41:59;11.80;;;7.93;;
11123;SDS011;5616;42.692;23.312;2022-10-31T05:44:26;12.30;;;8.23;;
11123;SDS011;5616;42.692;23.312;2022-10-31T05:47:08;13.67;;;7.90;;
11123;SDS011;5616;42.692;23.312;2022-10-31T05:49:53;15.13;;;9.03;;
11123;SDS011;5616;42.692;23.312;2022-10-31T05:52:36;12.83;;;8.57;;
11123;SDS011;5616;42.692;23.312;2022-10-31T05:55:13;13.00;;;7.83;;
11123;SDS011;5616;42.692;23.312;2022-10-31T05:57:53;14.23;;;8.60;;
11123;SDS011;5616;42.692;23.312;2022-10-31T06:00:21;15.80;;;8.93;;
11123;SDS011;5616;42.692;23.312;2022-10-31T06:02:48;16.50;;;9.30;;
11123;SDS011;5616;42.692;23.312;2022-10-31T06:05:34;17.67;;;10.00;;
11123;SDS011;5616;42.692;23.312;2022-10-31T06:08:02;19.43;;;10.30;;
11123;SDS011;5616;42.692;23.312;2022-10-31T06:10:29;22.03;;;9.80;;
11123;SDS011;5616;42.692;23.312;2022-10-31T06:12:56;17.47;;;9.90;;
11123;SDS011;5616;42.692;23.312;2022-10-31T06:15:43;19.37;;;10.10;;
11123;SDS011;5616;42.692;23.312;2022-10-31T06:18:11;16.80;;;9.50;;
11123;SDS011;5616;42.692;23.312;2022-10-31T06:20:45;12.80;;;9.37;;
11123;SDS011;5616;42.692;23.312;2022-10-31T06:23:13;18.80;;;9.97;;
11123;SDS011;5616;42.692;23.312;2022-10-31T06:25:42;19.57;;;11.13;;
11123;SDS011;5616;42.692;23.312;2022-10-31T06:28:11;17.37;;;10.57;;
11123;SDS011;5616;42.692;23.312;2022-10-31T06:30:54;21.43;;;9.83;;
11123;SDS011;5616;42.692;23.312;2022-10-31T06:33:22;14.70;;;9.07;;
11123;SDS011;5616;42.692;23.312;2022-10-31T06:35:57;15.20;;;9.10;;
11123;SDS011;5616;42.692;23.312;2022-10-31T06:38:26;15.67;;;8.37;;
11123;SDS011;5616;42.692;23.312;2022-10-31T06:40:54;13.10;;;8.43;;
11123;SDS011;5616;42.692;23.312;2022-10-31T06:43:24;15.10;;;9.37;;
11123;SDS011;5616;42.692;23.312;2022-10-31T06:46:08;18.95;;;12.75;;
11123;SDS011;5616;42.692;23.312;2022-10-31T06:48:45;31.97;;;16.80;;
11123;SDS011;5616;42.692;23.312;2022-10-31T06:51:18;19.20;;;10.80;;
11123;SDS011;5616;42.692;23.312;2022-10-31T06:53:49;13.03;;;9.27;;
11123;SDS011;5616;42.692;23.312;2022-10-31T06:56:16;10.97;;;9.67;;
11123;SDS011;5616;42.692;23.312;2022-10-31T06:58:47;14.67;;;9.77;;
11123;SDS011;5616;42.692;23.312;2022-10-31T07:01:16;19.83;;;10.90;;
11123;SDS011;5616;42.692;23.312;2022-10-31T07:03:43;15.83;;;10.37;;
11123;SDS011;5616;42.692;23.312;2022-10-31T07:06:10;14.07;;;10.17;;
11123;SDS011;5616;42.692;23.312;2022-10-31T07:08:38;38.30;;;20.47;;
11123;SDS011;5616;42.692;23.312;2022-10-31T07:11:07;21.67;;;13.27;;
11123;SDS011;5616;42.692;23.312;2022-10-31T07:13:34;18.63;;;11.40;;
11123;SDS011;5616;42.692;23.312;2022-10-31T07:16:07;22.20;;;11.13;;
11123;SDS011;5616;42.692;23.312;2022-10-31T07:18:37;12.97;;;10.77;;
11123;SDS011;5616;42.692;23.312;2022-10-31T07:21:04;15.70;;;10.73;;
11123;SDS011;5616;42.692;23.312;2022-10-31T07:23:31;20.30;;;12.13;;
11123;SDS011;5616;42.692;23.312;2022-10-31T07:26:18;23.03;;;11.10;;
11123;SDS011;5616;42.692;23.312;2022-10-31T07:28:46;15.63;;;12.07;;
11123;SDS011;5616;42.692;23.312;2022-10-31T07:31:16;37.57;;;19.80;;
11123;SDS011;5616;42.692;23.312;2022-10-31T07:33:43;24.53;;;14.27;;
11123;SDS011;5616;42.692;23.312;2022-10-31T07:36:22;17.30;;;12.80;;
11123;SDS011;5616;42.692;23.312;2022-10-31T07:38:50;19.03;;;11.50;;
11123;SDS011;5616;42.692;23.312;2022-10-31T07:41:19;17.50;;;10.53;;
11123;SDS011;5616;42.692;23.312;2022-10-31T07:43:47;19.47;;;12.27;;
11123;SDS011;5616;42.692;23.312;2022-10-31T07:46:17;19.60;;;12.40;;
11123;SDS011;5616;42.692;23.312;2022-10-31T07:49:04;18.13;;;11.57;;
11123;SDS011;5616;42.692;23.312;2022-10-31T07:51:49;16.67;;;12.50;;
11123;SDS011;5616;42.692;23.312;2022-10-31T07:54:18;19.67;;;12.20;;
11123;SDS011;5616;42.692;23.312;2022-10-31T07:56:48;17.67;;;11.57;;
11123;SDS011;5616;42.692;23.312;2022-10-31T07:59:15;20.63;;;11.17;;
11123;SDS011;5616;42.692;23.312;2022-10-31T08:01:42;17.77;;;11.70;;
11123;SDS011;5616;42.692;23.312;2022-10-31T08:04:46;15.83;;;11.27;;
11123;SDS011;5616;42.692;23.312;2022-10-31T08:07:35;21.17;;;11.50;;
11123;SDS011;5616;42.692;23.312;2022-10-31T08:10:05;21.77;;;13.03;;
11123;SDS011;5616;42.692;23.312;2022-10-31T08:12:35;16.33;;;11.17;;
11123;SDS011;5616;42.692;23.312;2022-10-31T08:15:06;16.43;;;11.00;;
11123;SDS011;5616;42.692;23.312;2022-10-31T08:17:34;17.20;;;11.60;;
11123;SDS011;5616;42.692;23.312;2022-10-31T08:20:01;20.67;;;12.60;;
11123;SDS011;5616;42.692;23.312;2022-10-31T08:22:35;19.53;;;11.77;;
11123;SDS011;5616;42.692;23.312;2022-10-31T08:25:02;20.77;;;12.43;;
11123;SDS011;5616;42.692;23.312;2022-10-31T08:27:29;18.87;;;12.50;;
11123;SDS011;5616;42.692;23.312;2022-10-31T08:30:00;18.10;;;12.73;;
11123;SDS011;5616;42.692;23.312;2022-10-31T08:32:27;17.13;;;12.07;;
11123;SDS011;5616;42.692;23.312;2022-10-31T08:34:57;16.03;;;12.23;;
11123;SDS011;5616;42.692;23.312;2022-10-31T08:37:43;22.77;;;12.40;;
11123;SDS011;5616;42.692;23.312;2022-10-31T08:40:10;20.23;;;12.27;;
11123;SDS011;5616;42.692;23.312;2022-10-31T08:42:39;16.67;;;11.87;;
11123;SDS011;5616;42.692;23.312;2022-10-31T08:45:08;19.63;;;12.10;;
11123;SDS011;5616;42.692;23.312;2022-10-31T08:47:35;19.20;;;11.97;;
11123;SDS011;5616;42.692;23.312;2022-10-31T08:50:03;16.43;;;11.40;;
11123;SDS011;5616;42.692;23.312;2022-10-31T08:52:30;17.40;;;11.90;;
11123;SDS011;5616;42.692;23.312;2022-10-31T08:55:00;17.17;;;11.40;;
11123;SDS011;5616;42.692;23.312;2022-10-31T08:57:46;14.97;;;10.80;;
11123;SDS011;5616;42.692;23.312;2022-10-31T09:00:14;15.37;;;10.17;;
11123;SDS011;5616;42.692;23.312;2022-10-31T09:02:56;15.60;;;10.23;;
11123;SDS011;5616;42.692;23.312;2022-10-31T09:05:23;13.30;;;10.47;;
11123;SDS011;5616;42.692;23.312;2022-10-31T09:07:51;11.53;;;9.60;;
11123;SDS011;5616;42.692;23.312;2022-10-31T09:10:18;14.50;;;9.83;;
11123;SDS011;5616;42.692;23.312;2022-10-31T09:12:45;16.97;;;10.07;;
11123;SDS011;5616;42.692;23.312;2022-10-31T09:15:32;15.73;;;9.80;;
11123;SDS011;5616;42.692;23.312;2022-10-31T09:18:13;16.47;;;9.17;;
11123;SDS011;5616;42.692;23.312;2022-10-31T09:20:57;15.53;;;9.20;;
11123;SDS011;5616;42.692;23.312;2022-10-31T09:23:26;14.17;;;9.67;;
11123;SDS011;5616;42.692;23.312;2022-10-31T09:25:54;19.30;;;9.53;;
11123;SDS011;5616;42.692;23.312;2022-10-31T09:28:38;14.10;;;9.70;;
11123;SDS011;5616;42.692;23.312;2022-10-31T09:31:09;12.30;;;9.47;;
11123;SDS011;5616;42.692;23.312;2022-10-31T09:33:59;14.50;;;8.73;;
11123;SDS011;5616;42.692;23.312;2022-10-31T09:36:35;16.70;;;8.90;;
11123;SDS011;5616;42.692;23.312;2022-10-31T09:39:04;11.90;;;8.60;;
11123;SDS011;5616;42.692;23.312;2022-10-31T09:41:44;13.57;;;8.40;;
11123;SDS011;5616;42.692;23.312;2022-10-31T09:44:28;12.43;;;7.80;;
11123;SDS011;5616;42.692;23.312;2022-10-31T09:47:08;15.80;;;8.47;;
11123;SDS011;5616;42.692;23.312;2022-10-31T09:49:58;11.70;;;8.00;;
11123;SDS011;5616;42.692;23.312;2022-10-31T09:52:36;14.37;;;8.60;;
11123;SDS011;5616;42.692;23.312;2022-10-31T09:55:13;15.13;;;8.23;;
11123;SDS011;5616;42.692;23.312;2022-10-31T09:57:43;12.57;;;7.43;;
11123;SDS011;5616;42.692;23.312;2022-10-31T10:00:14;11.00;;;6.90;;
11123;SDS011;5616;42.692;23.312;2022-10-31T10:02:46;10.70;;;7.03;;
11123;SDS011;5616;42.692;23.312;2022-10-31T10:05:18;9.67;;;6.33;;
11123;SDS011;5616;42.692;23.312;2022-10-31T10:07:54;9.27;;;5.90;;
11123;SDS011;5616;42.692;23.312;2022-10-31T10:10:59;7.87;;;5.60;;
11123;SDS011;5616;42.692;23.312;2022-10-31T10:14:02;9.30;;;5.53;;
11123;SDS011;5616;42.692;23.312;2022-10-31T10:16:40;14.30;;;6.30;;
11123;SDS011;5616;42.692;23.312;2022-10-31T10:19:34;8.93;;;5.80;;
11123;SDS011;5616;42.692;23.312;2022-10-31T10:22:23;13.63;;;5.60;;
11123;SDS011;5616;42.692;23.312;2022-10-31T10:25:09;9.40;;;5.67;;
11123;SDS011;5616;42.692;23.312;2022-10-31T10:27:45;5.80;;;4.60;;
11123;SDS011;5616;42.692;23.312;2022-10-31T10:30:16;7.83;;;3.50;;
11123;SDS011;5616;42.692;23.312;2022-10-31T10:32:46;8.03;;;4.60;;
11123;SDS011;5616;42.692;23.312;2022-10-31T10:35:19;11.57;;;5.13;;
11123;SDS011;5616;42.692;23.312;2022-10-31T10:37:49;8.50;;;4.60;;
11123;SDS011;5616;42.692;23.312;2022-10-31T10:40:19;9.03;;;5.17;;
11123;SDS011;5616;42.692;23.312;2022-10-31T10:42:52;9.70;;;5.23;;
11123;SDS011;5616;42.692;23.312;2022-10-31T10:45:43;8.93;;;4.73;;
11123;SDS011;5616;42.692;23.312;2022-10-31T10:48:34;10.40;;;4.50;;
11123;SDS011;5616;42.692;23.312;2022-10-31T10:51:10;9.20;;;4.30;;
11123;SDS011;5616;42.692;23.312;2022-10-31T10:53:49;6.57;;;4.20;;
11123;SDS011;5616;42.692;23.312;2022-10-31T10:56:36;10.73;;;3.83;;
11123;SDS011;5616;42.692;23.312;2022-10-31T10:59:09;10.37;;;4.10;;
11123;SDS011;5616;42.692;23.312;2022-10-31T11:01:40;10.63;;;4.47;;
11123;SDS011;5616;42.692;23.312;2022-10-31T11:06:59;7.33;;;4.43;;
11123;SDS011;5616;42.692;23.312;2022-10-31T11:09:28;8.87;;;4.63;;
11123;SDS011;5616;42.692;23.312;2022-10-31T11:11:55;6.03;;;3.70;;
11123;SDS011;5616;42.692;23.312;2022-10-31T11:14:23;6.53;;;3.90;;
11123;SDS011;5616;42.692;23.312;2022-10-31T11:16:51;8.17;;;4.70;;
11123;SDS011;5616;42.692;23.312;2022-10-31T11:19:22;7.90;;;4.77;;
11123;SDS011;5616;42.692;23.312;2022-10-31T11:21:51;9.10;;;4.00;;
11123;SDS011;5616;42.692;23.312;2022-10-31T11:24:20;9.90;;;4.60;;
11123;SDS011;5616;42.692;23.312;2022-10-31T11:26:50;6.70;;;3.47;;
11123;SDS011;5616;42.692;23.312;2022-10-31T11:29:20;8.40;;;3.80;;
11123;SDS011;5616;42.692;23.312;2022-10-31T11:31:51;8.53;;;4.27;;
11123;SDS011;5616;42.692;23.312;2022-10-31T11:34:24;8.27;;;3.60;;
11123;SDS011;5616;42.692;23.312;2022-10-31T11:36:54;8.43;;;3.90;;
11123;SDS011;5616;42.692;23.312;2022-10-31T11:39:29;7.97;;;3.90;;
11123;SDS011;5616;42.692;23.312;2022-10-31T11:41:59;8.17;;;3.70;;
11123;SDS011;5616;42.692;23.312;2022-10-31T11:44:28;7.17;;;4.00;;
11123;SDS011;5616;42.692;23.312;2022-10-31T11:46:58;14.77;;;4.43;;
11123;SDS011;5616;42.692;23.312;2022-10-31T11:49:28;9.37;;;4.00;;
11123;SDS011;5616;42.692;23.312;2022-10-31T11:51:59;6.73;;;3.50;;
11123;SDS011;5616;42.692;23.312;2022-10-31T11:54:30;8.10;;;3.60;;
11123;SDS011;5616;42.692;23.312;2022-10-31T11:57:20;7.17;;;3.30;;
11123;SDS011;5616;42.692;23.312;2022-10-31T11:59:50;8.77;;;3.63;;
11123;SDS011;5616;42.692;23.312;2022-10-31T12:02:18;9.47;;;3.57;;
11123;SDS011;5616;42.692;23.312;2022-10-31T12:04:46;6.97;;;3.70;;
11123;SDS011;5616;42.692;23.312;2022-10-31T12:07:20;8.40;;;3.33;;
11123;SDS011;5616;42.692;23.312;2022-10-31T12:09:50;6.77;;;3.67;;
11123;SDS011;5616;42.692;23.312;2022-10-31T12:12:26;7.97;;;3.47;;
11123;SDS011;5616;42.692;23.312;2022-10-31T12:15:11;9.82;;;4.10;;
11123;SDS011;5616;42.692;23.312;2022-10-31T12:17:57;6.73;;;3.60;;
11123;SDS011;5616;42.692;23.312;2022-10-31T12:20:44;9.70;;;3.80;;
11123;SDS011;5616;42.692;23.312;2022-10-31T12:23:22;9.07;;;3.37;;
11123;SDS011;5616;42.692;23.312;2022-10-31T12:26:01;8.70;;;3.50;;
11123;SDS011;5616;42.692;23.312;2022-10-31T12:28:45;6.83;;;4.00;;
11123;SDS011;5616;42.692;23.312;2022-10-31T12:31:26;8.40;;;3.50;;
11123;SDS011;5616;42.692;23.312;2022-10-31T12:34:12;10.83;;;4.20;;
11123;SDS011;5616;42.692;23.312;2022-10-31T12:37:00;6.43;;;3.63;;
11123;SDS011;5616;42.692;23.312;2022-10-31T12:39:38;8.87;;;3.97;;
11123;SDS011;5616;42.692;23.312;2022-10-31T12:42:17;7.20;;;3.80;;
11123;SDS011;5616;42.692;23.312;2022-10-31T12:44:58;11.40;;;3.70;;
11123;SDS011;5616;42.692;23.312;2022-10-31T12:47:40;9.90;;;4.13;;
11123;SDS011;5616;42.692;23.312;2022-10-31T12:50:21;6.32;;;3.92;;
11123;SDS011;5616;42.692;23.312;2022-10-31T12:52:57;5.53;;;3.30;;
11123;SDS011;5616;42.692;23.312;2022-10-31T12:55:37;10.02;;;4.10;;
11123;SDS011;5616;42.692;23.312;2022-10-31T12:58:17;4.50;;;3.20;;
11123;SDS011;5616;42.692;23.312;2022-10-31T13:00:51;8.85;;;4.00;;
11123;SDS011;5616;42.692;23.312;2022-10-31T13:03:28;10.80;;;3.85;;
11123;SDS011;5616;42.692;23.312;2022-10-31T13:06:02;9.70;;;3.73;;
11123;SDS011;5616;42.692;23.312;2022-10-31T13:08:33;6.87;;;3.80;;
11123;SDS011;5616;42.692;23.312;2022-10-31T13:11:09;10.05;;;4.00;;
11123;SDS011;5616;42.692;23.312;2022-10-31T13:13:39;9.27;;;4.27;;
11123;SDS011;5616;42.692;23.312;2022-10-31T13:16:11;8.30;;;4.10;;
11123;SDS011;5616;42.692;23.312;2022-10-31T13:18:43;9.90;;;4.60;;
11123;SDS011;5616;42.692;23.312;2022-10-31T13:21:16;10.30;;;3.80;;
11123;SDS011;5616;42.692;23.312;2022-10-31T13:23:47;7.57;;;3.70;;
11123;SDS011;5616;42.692;23.312;2022-10-31T13:26:18;8.77;;;4.07;;
11123;SDS011;5616;42.692;23.312;2022-10-31T13:28:52;8.77;;;3.60;;
11123;SDS011;5616;42.692;23.312;2022-10-31T13:31:25;8.10;;;3.93;;
11123;SDS011;5616;42.692;23.312;2022-10-31T13:33:53;12.07;;;4.33;;
11123;SDS011;5616;42.692;23.312;2022-10-31T13:36:24;9.37;;;3.63;;
11123;SDS011;5616;42.692;23.312;2022-10-31T13:38:59;9.10;;;3.50;;
11123;SDS011;5616;42.692;23.312;2022-10-31T13:41:42;5.83;;;3.63;;
11123;SDS011;5616;42.692;23.312;2022-10-31T13:44:15;7.10;;;4.00;;
11123;SDS011;5616;42.692;23.312;2022-10-31T13:46:45;6.93;;;3.63;;
11123;SDS011;5616;42.692;23.312;2022-10-31T13:49:23;9.47;;;3.50;;
11123;SDS011;5616;42.692;23.312;2022-10-31T13:51:52;7.50;;;3.80;;
11123;SDS011;5616;42.692;23.312;2022-10-31T13:54:20;6.40;;;4.40;;
11123;SDS011;5616;42.692;23.312;2022-10-31T13:56:48;8.40;;;3.97;;
11123;SDS011;5616;42.692;23.312;2022-10-31T13:59:19;5.93;;;3.33;;
11123;SDS011;5616;42.692;23.312;2022-10-31T14:01:49;9.57;;;4.10;;
11123;SDS011;5616;42.692;23.312;2022-10-31T14:04:19;8.50;;;3.70;;
11123;SDS011;5616;42.692;23.312;2022-10-31T14:06:53;6.87;;;3.93;;
11123;SDS011;5616;42.692;23.312;2022-10-31T14:09:27;6.87;;;4.00;;
11123;SDS011;5616;42.692;23.312;2022-10-31T14:11:58;8.00;;;3.43;;
11123;SDS011;5616;42.692;23.312;2022-10-31T14:14:31;8.50;;;3.80;;
11123;SDS011;5616;42.692;23.312;2022-10-31T14:17:05;8.33;;;3.60;;
11123;SDS011;5616;42.692;23.312;2022-10-31T14:19:40;8.23;;;3.50;;
11123;SDS011;5616;42.692;23.312;2022-10-31T14:22:18;9.13;;;3.77;;
11123;SDS011;5616;42.692;23.312;2022-10-31T14:24:46;6.23;;;3.47;;
11123;SDS011;5616;42.692;23.312;2022-10-31T14:27:33;7.90;;;3.57;;
11123;SDS011;5616;42.692;23.312;2022-10-31T14:30:16;9.03;;;3.93;;
11123;SDS011;5616;42.692;23.312;2022-10-31T14:32:44;8.43;;;3.60;;
11123;SDS011;5616;42.692;23.312;2022-10-31T14:35:17;6.53;;;3.63;;
11123;SDS011;5616;42.692;23.312;2022-10-31T14:38:05;8.03;;;3.70;;
11123;SDS011;5616;42.692;23.312;2022-10-31T14:40:52;10.27;;;3.53;;
11123;SDS011;5616;42.692;23.312;2022-10-31T14:43:41;9.00;;;4.03;;
11123;SDS011;5616;42.692;23.312;2022-10-31T14:46:26;8.27;;;4.27;;
11123;SDS011;5616;42.692;23.312;2022-10-31T14:49:05;8.50;;;3.57;;
11123;SDS011;5616;42.692;23.312;2022-10-31T14:51:50;6.63;;;3.33;;
11123;SDS011;5616;42.692;23.312;2022-10-31T14:54:19;8.60;;;3.43;;
11123;SDS011;5616;42.692;23.312;2022-10-31T14:56:52;10.40;;;4.47;;
11123;SDS011;5616;42.692;23.312;2022-10-31T14:59:24;18.93;;;12.13;;
11123;SDS011;5616;42.692;23.312;2022-10-31T15:01:57;16.93;;;11.33;;
11123;SDS011;5616;42.692;23.312;2022-10-31T15:04:27;10.90;;;4.13;;
11123;SDS011;5616;42.692;23.312;2022-10-31T15:06:58;28.53;;;20.03;;
11123;SDS011;5616;42.692;23.312;2022-10-31T15:09:29;15.97;;;8.47;;
11123;SDS011;5616;42.692;23.312;2022-10-31T15:11:58;14.87;;;6.50;;
11123;SDS011;5616;42.692;23.312;2022-10-31T15:14:26;10.43;;;6.63;;
11123;SDS011;5616;42.692;23.312;2022-10-31T15:16:56;17.93;;;11.03;;
11123;SDS011;5616;42.692;23.312;2022-10-31T15:19:25;22.83;;;15.87;;